Time;durP1;ratioP1;P1;durP2;ratioP2;P2;SDS_P1;SDS_P2;PMS_P1;PMS_P2;Temp;Humidity;BMP_temperature;BMP_pressure;BME280_temperature;BME280_humidity;BME280_pressure;Samples;Min_cycle;Max_cycle;Signal;HPM_P1;HPM_P2
2022/08/19 00:00:56;;;;;;;18.80;13.30;;;;;;;19.21;100.00;100617.27;107494;1247;63612;-71
2022/08/19 00:03:25;;;;;;;18.30;13.50;;;;;;;19.22;100.00;100619.52;107713;1245;63114;-72
2022/08/19 00:05:53;;;;;;;18.00;13.60;;;;;;;19.24;100.00;100619.42;107703;1245;70991;-74
2022/08/19 00:08:22;;;;;;;17.40;13.10;;;;;;;19.24;100.00;100623.56;107680;1247;64095;-72
2022/08/19 00:10:52;;;;;;;16.50;13.50;;;;;;;19.23;100.00;100623.83;107734;1244;59573;-74
2022/08/19 00:13:21;;;;;;;21.50;14.00;;;;;;;19.22;100.00;100625.30;107427;1248;59527;-70
2022/08/19 00:15:50;;;;;;;17.70;13.90;;;;;;;19.17;100.00;100619.46;107930;1245;73602;-70
2022/08/19 00:18:18;;;;;;;16.70;13.80;;;;;;;19.20;100.00;100626.98;107998;1244;72624;-75
2022/08/19 00:20:48;;;;;;;17.30;13.80;;;;;;;19.20;100.00;100624.55;107705;1248;60497;-71
2022/08/19 00:23:17;;;;;;;18.40;13.50;;;;;;;19.19;100.00;100621.13;107692;1247;73691;-70
2022/08/19 00:25:45;;;;;;;20.50;13.00;;;;;;;19.17;100.00;100618.16;107496;1248;59617;-72
2022/08/19 00:28:16;;;;;;;22.10;14.90;;;;;;;19.17;100.00;100616.74;107557;1245;60697;-71
2022/08/19 00:30:45;;;;;;;18.10;14.20;;;;;;;19.16;100.00;100619.27;107744;1247;64318;-73
2022/08/19 00:33:13;;;;;;;17.70;15.00;;;;;;;19.16;100.00;100618.60;107759;1247;70581;-72
2022/08/19 00:35:42;;;;;;;16.30;14.50;;;;;;;19.15;100.00;100616.09;107823;1247;69149;-74
2022/08/19 00:38:11;;;;;;;15.60;13.60;;;;;;;19.12;100.00;100613.15;107843;1247;62502;-73
2022/08/19 00:40:46;;;;;;;20.40;14.90;;;;;;;19.12;100.00;100618.13;107871;1244;62389;-75
2022/08/19 00:43:20;;;;;;;18.60;13.60;;;;;;;19.12;100.00;100622.59;107715;1247;60681;-75
2022/08/19 00:45:51;;;;;;;21.50;14.00;;;;;;;19.08;100.00;100628.31;107998;1247;64204;-73
2022/08/19 00:48:22;;;;;;;20.70;13.90;;;;;;;19.04;100.00;100631.23;108041;1247;61946;-75
2022/08/19 00:50:52;;;;;;;18.70;13.00;;;;;;;18.98;100.00;100633.06;107936;1247;61881;-74
2022/08/19 00:53:26;;;;;;;27.20;14.00;;;;;;;18.96;100.00;100631.05;108324;1247;64419;-74
2022/08/19 00:55:59;;;;;;;17.20;13.60;;;;;;;18.91;100.00;100620.27;108563;1246;61008;-80
2022/08/19 00:58:33;;;;;;;19.90;14.30;;;;;;;18.92;100.00;100616.69;108171;1247;60941;-74
2022/08/19 01:01:04;;;;;;;19.50;14.10;;;;;;;18.94;100.00;100617.69;108092;1247;74084;-75
2022/08/19 01:03:33;;;;;;;20.30;13.90;;;;;;;18.93;100.00;100615.46;107781;1247;62010;-79
2022/08/19 01:06:22;;;;;;;18.40;13.40;;;;;;;18.91;100.00;100612.65;107527;1247;60038;-70
2022/08/19 01:08:51;;;;;;;20.90;13.50;;;;;;;18.87;100.00;100605.55;107585;1247;74037;-71
2022/08/19 01:11:20;;;;;;;15.20;13.30;;;;;;;18.83;100.00;100603.52;107507;1248;59677;-72
2022/08/19 01:13:52;;;;;;;18.90;14.30;;;;;;;18.81;100.00;100602.48;107402;1250;59626;-75
2022/08/19 01:16:24;;;;;;;20.80;13.50;;;;;;;18.80;100.00;100605.02;107628;1247;73622;-74
2022/08/19 01:18:53;;;;;;;;;;;;;;;18.82;100.00;100607.33;107462;1250;62416;-75
2022/08/19 01:21:33;;;;;;;18.80;14.60;;;;;;;18.81;100.00;100611.67;107285;1250;70274;-75
2022/08/19 01:24:02;;;;;;;17.50;13.80;;;;;;;18.78;100.00;100613.87;107603;1247;73552;-75
2022/08/19 01:26:31;;;;;;;19.10;14.40;;;;;;;18.77;100.00;100612.46;107679;1248;61940;-76
2022/08/19 01:29:00;;;;;;;16.70;13.90;;;;;;;18.75;100.00;100611.21;107774;1247;58896;-81
2022/08/19 01:31:32;;;;;;;30.70;14.90;;;;;;;18.71;100.00;100607.48;107881;1247;62992;-73
2022/08/19 01:34:02;;;;;;;19.40;13.60;;;;;;;18.67;100.00;100606.34;107741;1247;70967;-73
2022/08/19 01:36:39;;;;;;;21.90;13.80;;;;;;;18.66;100.00;100605.31;107868;1248;71007;-71
2022/08/19 01:39:23;;;;;;;20.00;13.80;;;;;;;18.64;100.00;100607.27;107472;1250;74310;-73
2022/08/19 01:41:54;;;;;;;23.20;14.30;;;;;;;18.61;100.00;100608.34;107596;1247;62888;-78
2022/08/19 01:44:23;;;;;;;18.90;14.00;;;;;;;18.57;100.00;100610.70;107419;1248;60861;-78
2022/08/19 01:46:53;;;;;;;17.60;13.80;;;;;;;18.55;100.00;100610.42;107574;1249;64232;-77
2022/08/19 01:49:26;;;;;;;18.40;14.30;;;;;;;18.51;100.00;100610.13;107632;1248;72320;-78
2022/08/19 01:51:55;;;;;;;17.60;13.70;;;;;;;18.47;100.00;100607.71;107656;1247;70294;-73
2022/08/19 01:54:24;;;;;;;19.90;14.10;;;;;;;18.43;100.00;100611.30;107638;1247;74299;-74
2022/08/19 01:57:11;;;;;;;20.30;13.90;;;;;;;18.41;100.00;100613.88;107519;1248;59600;-74
2022/08/19 01:59:44;;;;;;;16.90;13.50;;;;;;;18.38;100.00;100607.11;107588;1247;60400;-73
2022/08/19 02:02:13;;;;;;;17.90;13.30;;;;;;;18.34;100.00;100608.09;107540;1247;73279;-75
2022/08/19 02:04:42;;;;;;;22.00;14.00;;;;;;;18.29;100.00;100606.48;107435;1247;61254;-73
2022/08/19 02:07:11;;;;;;;18.90;13.70;;;;;;;18.25;100.00;100603.75;107460;1247;70598;-73
2022/08/19 02:09:40;;;;;;;18.30;13.20;;;;;;;18.23;100.00;100598.14;107306;1249;63104;-75
2022/08/19 02:12:09;;;;;;;18.20;13.50;;;;;;;18.21;100.00;100592.55;107440;1247;63331;-72
2022/08/19 02:14:38;;;;;;;18.50;13.80;;;;;;;18.18;100.00;100585.60;107462;1246;61685;-72
2022/08/19 02:17:06;;;;;;;17.00;14.10;;;;;;;18.16;100.00;100583.92;107417;1248;74828;-73
2022/08/19 02:19:35;;;;;;;23.90;15.40;;;;;;;18.15;100.00;100584.34;107404;1248;61590;-73
2022/08/19 02:22:08;;;;;;;17.70;15.00;;;;;;;18.15;100.00;100586.52;107497;1247;59482;-74
2022/08/19 02:24:37;;;;;;;18.60;14.20;;;;;;;18.14;100.00;100590.14;107452;1247;73982;-75
2022/08/19 02:27:07;;;;;;;20.10;15.50;;;;;;;18.13;100.00;100596.02;107262;1250;62493;-74
2022/08/19 02:29:35;;;;;;;18.70;14.90;;;;;;;18.11;100.00;100600.23;107231;1247;60948;-75
2022/08/19 02:32:23;;;;;;;24.80;17.10;;;;;;;18.12;100.00;100608.16;107435;1247;64489;-78
2022/08/19 02:34:51;;;;;;;22.30;16.20;;;;;;;18.15;100.00;100615.36;107457;1247;71387;-77
2022/08/19 02:40:07;;;;;;;23.60;15.10;;;;;;;18.18;100.00;100621.39;107574;1247;63293;-76
2022/08/19 02:42:40;;;;;;;;;;;;;;;18.18;100.00;100619.80;107598;1247;63843;-77
2022/08/19 02:45:09;;;;;;;25.60;16.00;;;;;;;18.17;100.00;100615.54;107541;1247;59484;-77
2022/08/19 02:47:38;;;;;;;17.00;15.20;;;;;;;18.18;100.00;100613.69;107354;1248;64674;-77
2022/08/19 02:50:08;;;;;;;20.80;14.30;;;;;;;18.17;100.00;100614.25;107450;1248;61640;-76
2022/08/19 02:52:37;;;;;;;18.80;14.20;;;;;;;18.16;100.00;100617.91;107559;1248;69754;-77
2022/08/19 02:55:07;;;;;;;17.50;14.00;;;;;;;18.15;100.00;100617.84;107745;1247;74283;-76
2022/08/19 02:57:36;;;;;;;19.90;14.40;;;;;;;18.15;100.00;100621.74;107502;1247;63714;-76
2022/08/19 03:00:12;;;;;;;19.00;15.60;;;;;;;18.12;100.00;100621.73;107614;1247;62409;-76
2022/08/19 03:02:41;;;;;;;17.80;14.70;;;;;;;18.08;100.00;100619.87;107532;1248;74897;-77
2022/08/19 03:05:10;;;;;;;22.40;15.70;;;;;;;18.07;100.00;100617.14;107585;1247;71803;-77
2022/08/19 03:07:39;;;;;;;20.20;15.50;;;;;;;18.06;100.00;100617.08;107524;1247;71535;-79
2022/08/19 03:10:08;;;;;;;24.20;15.30;;;;;;;18.03;100.00;100615.95;107612;1247;74270;-77
2022/08/19 03:12:39;;;;;;;23.30;14.30;;;;;;;17.99;100.00;100611.73;107351;1247;62688;-78
2022/08/19 03:15:09;;;;;;;20.80;15.20;;;;;;;18.01;100.00;100609.64;107591;1247;58942;-75
2022/08/19 03:17:37;;;;;;;19.30;14.70;;;;;;;18.03;100.00;100618.23;107656;1247;74472;-73
2022/08/19 03:20:07;;;;;;;24.30;18.50;;;;;;;18.04;100.00;100621.49;107294;1251;61418;-75
2022/08/19 03:22:36;;;;;;;22.90;15.60;;;;;;;18.05;100.00;100627.38;107581;1247;60629;-73
2022/08/19 03:25:05;;;;;;;21.10;15.10;;;;;;;18.04;100.00;100626.02;107340;1247;62505;-73
2022/08/19 03:27:34;;;;;;;20.30;15.90;;;;;;;18.06;100.00;100620.08;107367;1250;58714;-73
2022/08/19 03:30:04;;;;;;;21.30;15.00;;;;;;;18.07;100.00;100627.48;107420;1248;57730;-79
2022/08/19 03:32:34;;;;;;;41.50;27.00;;;;;;;18.08;100.00;100637.09;107595;1247;73504;-76
2022/08/19 03:35:12;;;;;;;22.80;17.20;;;;;;;18.10;100.00;100643.74;107345;1250;62912;-74
2022/08/19 03:37:41;;;;;;;19.40;14.50;;;;;;;18.14;100.00;100653.06;107496;1247;60001;-73
2022/08/19 03:40:10;;;;;;;19.30;15.60;;;;;;;18.16;100.00;100661.24;107405;1249;73160;-74
2022/08/19 03:42:43;;;;;;;21.30;15.70;;;;;;;18.17;100.00;100665.90;107383;1247;62820;-75
2022/08/19 03:45:17;;;;;;;22.90;15.70;;;;;;;18.16;100.00;100674.69;107433;1250;60985;-75
2022/08/19 03:47:46;;;;;;;25.20;15.80;;;;;;;18.17;100.00;100678.81;107537;1248;64283;-74
2022/08/19 03:50:32;;;;;;;20.70;15.90;;;;;;;18.22;100.00;100680.35;107416;1250;73058;-76
2022/08/19 03:53:01;;;;;;;25.40;15.90;;;;;;;18.27;100.00;100683.18;107529;1247;60585;-75
2022/08/19 03:55:30;;;;;;;20.20;15.70;;;;;;;18.34;100.00;100682.14;107374;1248;74281;-75
2022/08/19 03:57:58;;;;;;;28.40;16.50;;;;;;;18.40;100.00;100686.91;107565;1247;62589;-72
2022/08/19 04:00:27;;;;;;;25.50;18.00;;;;;;;18.46;100.00;100692.17;107598;1247;59640;-73
2022/08/19 04:02:56;;;;;;;21.40;17.50;;;;;;;18.55;100.00;100693.52;107602;1247;63795;-74
2022/08/19 04:05:29;;;;;;;21.20;17.50;;;;;;;18.63;100.00;100696.64;107321;1248;60988;-72
2022/08/19 04:07:58;;;;;;;24.10;16.80;;;;;;;18.69;100.00;100702.56;107406;1248;70570;-71
2022/08/19 04:10:28;;;;;;;21.70;17.10;;;;;;;18.75;100.00;100708.79;107697;1247;74256;-74
2022/08/19 04:12:57;;;;;;;24.50;17.60;;;;;;;18.79;100.00;100706.95;107604;1251;57927;-74
2022/08/19 04:15:28;;;;;;;24.40;18.10;;;;;;;18.83;100.00;100703.38;107456;1248;59685;-76
2022/08/19 04:17:57;;;;;;;24.40;18.10;;;;;;;18.88;100.00;100704.92;107633;1247;63049;-75
2022/08/19 04:20:26;;;;;;;28.70;17.70;;;;;;;18.94;100.00;100707.98;107427;1248;72178;-75
2022/08/19 04:22:56;;;;;;;27.90;19.50;;;;;;;18.99;100.00;100707.98;107644;1247;59763;-76
2022/08/19 04:25:25;;;;;;;25.70;18.00;;;;;;;19.06;100.00;100713.36;107712;1247;63131;-75
2022/08/19 04:27:54;;;;;;;22.90;18.40;;;;;;;19.13;100.00;100712.27;107639;1247;62916;-78
2022/08/19 04:30:22;;;;;;;25.40;19.00;;;;;;;19.21;100.00;100711.23;107618;1248;60467;-76
2022/08/19 04:32:51;;;;;;;26.30;18.30;;;;;;;19.28;100.00;100716.96;107621;1248;63007;-80
2022/08/19 04:35:22;;;;;;;23.90;18.10;;;;;;;19.35;100.00;100717.45;107734;1247;60849;-75
2022/08/19 04:37:52;;;;;;;21.80;17.80;;;;;;;19.44;100.00;100719.33;107854;1247;60053;-76
2022/08/19 04:43:09;;;;;;;25.90;18.70;;;;;;;19.59;100.00;100716.80;107725;1247;59586;-75
2022/08/19 04:45:37;;;;;;;24.40;18.70;;;;;;;19.68;100.00;100708.21;107694;1247;60314;-74
2022/08/19 04:48:12;;;;;;;25.30;18.50;;;;;;;19.75;100.00;100697.92;108001;1246;64919;-78
2022/08/19 04:50:57;;;;;;;26.20;18.50;;;;;;;19.84;100.00;100695.80;107611;1247;72670;-77
2022/08/19 04:53:31;;;;;;;27.70;18.00;;;;;;;19.91;100.00;100698.02;107854;1247;60258;-76
2022/08/19 04:56:13;;;;;;;27.90;17.30;;;;;;;20.01;100.00;100708.26;107517;1247;63335;-76
2022/08/19 04:58:44;;;;;;;24.30;17.50;;;;;;;20.11;100.00;100709.24;107261;1246;62409;-78
2022/08/19 05:01:19;;;;;;;21.70;17.00;;;;;;;20.17;100.00;100711.77;107564;1247;57987;-81
2022/08/19 05:03:49;;;;;;;21.10;16.80;;;;;;;20.23;100.00;100707.92;107697;1247;73845;-77
2022/08/19 05:06:20;;;;;;;24.90;17.30;;;;;;;20.31;100.00;100701.77;107488;1247;72781;-80
2022/08/19 05:08:50;;;;;;;24.00;16.10;;;;;;;20.40;100.00;100703.79;107759;1247;70558;-76
2022/08/19 05:11:38;;;;;;;24.70;16.70;;;;;;;20.48;100.00;100696.63;107599;1247;63095;-79
2022/08/19 05:14:09;;;;;;;23.60;16.10;;;;;;;20.56;100.00;100692.67;107522;1249;59568;-78
2022/08/19 05:16:38;;;;;;;20.40;16.40;;;;;;;20.59;100.00;100681.80;107521;1248;59587;-72
2022/08/19 05:24:42;;;;;;;21.30;15.40;;;;;;;20.97;97.98;100694.24;107336;1247;68691;-74
2022/08/19 05:27:32;;;;;;;25.70;17.80;;;;;;;20.99;98.01;100703.56;107430;1248;74256;-76
2022/08/19 05:30:01;;;;;;;31.60;16.40;;;;;;;20.99;98.63;100705.77;107686;1247;63282;-76
2022/08/19 05:32:30;;;;;;;27.40;17.30;;;;;;;21.11;98.51;100708.16;107824;1247;59564;-75
2022/08/19 05:34:59;;;;;;;22.80;16.10;;;;;;;21.21;98.15;100708.63;107397;1248;62996;-72
2022/08/19 05:37:28;;;;;;;19.50;14.80;;;;;;;21.35;97.39;100709.97;107542;1248;72212;-74
2022/08/19 05:39:57;;;;;;;21.70;16.10;;;;;;;21.51;95.77;100706.23;107548;1247;70911;-73
2022/08/19 05:42:26;;;;;;;23.70;16.20;;;;;;;21.54;96.19;100705.48;107310;1251;74362;-72
2022/08/19 05:44:55;;;;;;;18.90;14.70;;;;;;;21.60;95.51;100709.20;107282;1248;62629;-74
2022/08/19 05:47:24;;;;;;;19.00;13.50;;;;;;;21.67;94.97;100706.11;107413;1248;59696;-73
2022/08/19 05:49:53;;;;;;;21.30;12.80;;;;;;;21.78;93.86;100702.40;107578;1247;73592;-73
2022/08/19 05:52:21;;;;;;;18.60;12.30;;;;;;;21.88;93.15;100698.46;107464;1248;72606;-74
2022/08/19 05:54:55;;;;;;;18.00;12.50;;;;;;;21.94;92.91;100697.30;107570;1247;71107;-74
2022/08/19 05:57:24;;;;;;;24.10;13.20;;;;;;;22.03;92.76;100701.71;107614;1247;64253;-74
2022/08/19 05:59:53;;;;;;;20.50;13.40;;;;;;;22.15;92.69;100705.61;107409;1247;59569;-74
2022/08/19 06:02:30;;;;;;;15.50;12.20;;;;;;;22.25;91.99;100711.55;107648;1247;58885;-68
2022/08/19 06:04:59;;;;;;;14.30;10.70;;;;;;;22.37;91.11;100709.23;107545;1247;63623;-74
2022/08/19 06:07:28;;;;;;;17.10;11.40;;;;;;;22.50;90.38;100707.81;107334;1248;72250;-75
2022/08/19 06:09:57;;;;;;;15.00;11.90;;;;;;;22.52;88.91;100698.67;107569;1247;60282;-74
2022/08/19 06:12:32;;;;;;;15.50;10.20;;;;;;;22.61;88.34;100702.35;107684;1248;73913;-76
2022/08/19 06:15:13;;;;;;;14.50;10.90;;;;;;;22.72;87.63;100701.35;107591;1249;58948;-74
2022/08/19 06:17:44;;;;;;;14.80;10.90;;;;;;;22.80;87.37;100704.86;107497;1248;61173;-74
2022/08/19 06:20:15;;;;;;;13.60;10.40;;;;;;;22.81;86.75;100703.36;107652;1247;73280;-76
2022/08/19 06:22:51;;;;;;;20.90;11.70;;;;;;;22.92;85.80;100699.31;107467;1249;61957;-74
2022/08/19 06:25:20;;;;;;;16.30;11.00;;;;;;;22.93;85.58;100691.27;107584;1247;60017;-73
2022/08/19 06:27:49;;;;;;;14.30;10.30;;;;;;;22.91;84.82;100692.22;107646;1247;62456;-73
2022/08/19 06:30:38;;;;;;;15.60;11.60;;;;;;;23.05;84.95;100698.39;107442;1248;63478;-75
2022/08/19 06:33:06;;;;;;;15.80;11.50;;;;;;;23.14;84.64;100696.50;107654;1247;57946;-74
2022/08/19 06:35:40;;;;;;;14.40;10.40;;;;;;;23.23;84.04;100698.54;107455;1248;63825;-74
2022/08/19 06:38:09;;;;;;;15.90;10.70;;;;;;;23.28;84.36;100697.77;107632;1247;60858;-74
2022/08/19 06:40:38;;;;;;;14.60;10.90;;;;;;;23.39;83.28;100699.96;107565;1247;59820;-76
2022/08/19 06:43:07;;;;;;;18.00;11.00;;;;;;;23.41;82.35;100698.59;107656;1246;63667;-74
2022/08/19 06:45:38;;;;;;;17.00;10.60;;;;;;;23.48;82.31;100698.55;107647;1247;61959;-75
2022/08/19 06:48:07;;;;;;;14.50;10.00;;;;;;;23.64;80.12;100705.92;107679;1247;60217;-73
2022/08/19 06:50:36;;;;;;;14.10;9.80;;;;;;;23.74;79.46;100704.39;107428;1247;76037;-74
2022/08/19 06:53:08;;;;;;;16.90;9.70;;;;;;;23.81;78.53;100705.74;107734;1246;61107;-73
2022/08/19 06:55:37;;;;;;;12.10;9.90;;;;;;;23.88;77.85;100701.66;107675;1247;69864;-77
2022/08/19 06:58:06;;;;;;;11.00;9.80;;;;;;;24.00;78.05;100706.95;107505;1248;74370;-74
2022/08/19 07:00:35;;;;;;;11.60;9.80;;;;;;;24.10;77.22;100704.98;107647;1247;63484;-74
2022/08/19 07:03:03;;;;;;;13.10;9.40;;;;;;;24.24;76.09;100701.69;107715;1247;60978;-74
2022/08/19 07:05:42;;;;;;;17.00;10.20;;;;;;;24.29;76.27;100702.68;107647;1246;64275;-75
2022/08/19 07:08:14;;;;;;;13.70;9.50;;;;;;;24.37;76.41;100704.37;107462;1248;60866;-74
2022/08/19 07:10:45;;;;;;;15.60;10.40;;;;;;;24.47;75.56;100699.94;107595;1247;59222;-74
2022/08/19 07:13:14;;;;;;;13.30;9.30;;;;;;;24.53;73.76;100698.34;107595;1247;73075;-76
2022/08/19 07:15:42;;;;;;;15.70;10.50;;;;;;;24.67;72.69;100700.80;107321;1245;63412;-73
2022/08/19 07:18:11;;;;;;;17.90;10.40;;;;;;;24.78;73.14;100697.53;107619;1247;59512;-75
2022/08/19 07:20:40;;;;;;;15.30;9.70;;;;;;;24.93;72.66;100699.59;107659;1247;74102;-74
2022/08/19 07:23:10;;;;;;;12.20;9.70;;;;;;;25.01;72.06;100702.20;107744;1247;70699;-75
2022/08/19 07:25:44;;;;;;;12.80;10.90;;;;;;;25.05;72.02;100695.82;107888;1247;70533;-75
2022/08/19 07:28:22;;;;;;;14.40;10.10;;;;;;;25.14;71.29;100700.25;107761;1247;63663;-76
2022/08/19 07:30:52;;;;;;;13.80;9.80;;;;;;;25.20;71.47;100699.90;107749;1247;59612;-72
2022/08/19 07:33:22;;;;;;;14.00;10.10;;;;;;;25.32;71.34;100700.05;107543;1247;60549;-76
2022/08/19 07:35:55;;;;;;;;;;;;;;;25.48;70.42;100704.89;107977;1247;64174;-71
2022/08/19 07:38:24;;;;;;;13.20;10.20;;;;;;;25.55;69.23;100705.70;107775;1247;71434;-74
2022/08/19 07:40:54;;;;;;;13.00;9.60;;;;;;;25.61;69.38;100707.33;107801;1247;59511;-75
2022/08/19 07:43:25;;;;;;;10.20;8.80;;;;;;;25.71;69.12;100709.78;107787;1246;72754;-74
2022/08/19 07:46:02;;;;;;;12.20;9.20;;;;;;;25.76;68.07;100713.65;107754;1247;59671;-74
2022/08/19 07:48:32;;;;;;;14.70;8.80;;;;;;;25.82;67.82;100712.32;107569;1247;59664;-74
2022/08/19 07:51:04;;;;;;;13.50;8.90;;;;;;;25.88;66.41;100710.20;107533;1247;74494;-75
2022/08/19 07:53:33;;;;;;;13.20;8.70;;;;;;;25.93;66.06;100711.16;107641;1247;71634;-76
2022/08/19 07:56:07;;;;;;;14.50;9.20;;;;;;;25.95;66.02;100700.74;107748;1247;70200;-74
2022/08/19 07:58:40;;;;;;;10.90;8.30;;;;;;;26.07;65.40;100705.50;107695;1247;63629;-75
2022/08/19 08:01:12;;;;;;;;;;;;;;;26.22;65.67;100707.16;107877;1247;58637;-71
2022/08/19 08:09:22;;;;;;;10.50;8.90;;;;;;;26.42;64.03;100705.85;107914;1247;61977;-74
2022/08/19 08:12:01;;;;;;;15.50;8.00;;;;;;;26.55;63.53;100699.65;108164;1247;60754;-73
2022/08/19 08:14:55;;;;;;;16.40;8.80;;;;;;;26.66;62.67;100700.39;107667;1247;74253;-72
2022/08/19 08:17:27;;;;;;;12.90;7.50;;;;;;;26.81;62.45;100697.63;107960;1247;58093;-73
2022/08/19 08:20:16;;;;;;;15.20;8.10;;;;;;;26.88;61.55;100697.95;107931;1247;61129;-74
2022/08/19 08:25:36;;;;;;;10.10;7.60;;;;;;;27.00;60.66;100695.69;107595;1247;72002;-72
2022/08/19 08:28:07;;;;;;;14.10;7.50;;;;;;;27.11;59.27;100693.34;107548;1247;70164;-73
2022/08/19 08:30:41;;;;;;;12.80;7.60;;;;;;;27.24;59.03;100698.51;107541;1247;73473;-73
2022/08/19 08:33:13;;;;;;;11.70;7.40;;;;;;;27.33;58.84;100695.52;107770;1247;59327;-70
2022/08/19 08:35:47;;;;;;;9.40;6.80;;;;;;;27.41;58.31;100692.35;107435;1248;58305;-69
2022/08/19 08:38:17;;;;;;;10.70;7.00;;;;;;;27.50;57.39;100689.02;107289;1248;62925;-70
2022/08/19 08:41:05;;;;;;;11.20;7.40;;;;;;;27.67;57.27;100679.83;107527;1246;61676;-71
2022/08/19 08:43:55;;;;;;;10.40;7.70;;;;;;;27.78;56.77;100673.50;107554;1248;59519;-72
2022/08/19 08:46:37;;;;;;;10.20;6.80;;;;;;;27.85;56.45;100670.77;107500;1247;74995;-74
2022/08/19 08:49:15;;;;;;;11.70;7.00;;;;;;;27.90;54.82;100671.36;107588;1247;59639;-73
2022/08/19 08:52:00;;;;;;;11.20;6.80;;;;;;;27.90;54.85;100661.70;107417;1247;60513;-73
2022/08/19 08:54:44;;;;;;;10.80;6.60;;;;;;;27.96;53.99;100658.44;107647;1247;74173;-75
2022/08/19 08:57:50;;;;;;;14.50;5.20;;;;;;;27.94;53.13;100661.39;107234;1247;72780;-73
2022/08/19 09:00:34;;;;;;;10.90;5.20;;;;;;;27.97;51.54;100668.29;107648;1247;69548;-76
2022/08/19 09:03:09;;;;;;;8.90;5.00;;;;;;;28.15;51.29;100670.93;107579;1247;74576;-72
2022/08/19 09:06:29;;;;;;;8.60;5.40;;;;;;;28.22;51.44;100667.67;107659;1247;59579;-72
2022/08/19 09:09:06;;;;;;;8.00;5.60;;;;;;;28.39;50.91;100665.27;107452;1247;61311;-74
2022/08/19 09:12:15;;;;;;;9.40;5.40;;;;;;;28.45;49.83;100662.61;107754;1247;74884;-74
2022/08/19 09:14:55;;;;;;;7.90;5.90;;;;;;;28.61;49.86;100663.71;107626;1247;62214;-71
2022/08/19 09:17:33;;;;;;;9.10;5.10;;;;;;;28.69;48.96;100663.33;107472;1248;60029;-72
2022/08/19 09:20:13;;;;;;;9.80;5.00;;;;;;;28.60;47.37;100667.50;107581;1247;73892;-70
2022/08/19 09:22:46;;;;;;;7.40;4.60;;;;;;;28.54;47.31;100668.05;107680;1247;59563;-70
2022/08/19 09:25:22;;;;;;;8.60;5.20;;;;;;;28.71;47.07;100669.19;107379;1248;60486;-74
2022/08/19 09:27:57;;;;;;;8.10;5.60;;;;;;;28.82;47.57;100668.64;107452;1250;63471;-71
2022/08/19 09:30:39;;;;;;;8.20;4.80;;;;;;;28.88;47.21;100666.20;107714;1247;60933;-71
2022/08/19 09:33:08;;;;;;;7.30;4.80;;;;;;;29.00;46.87;100669.23;107545;1247;59682;-72
2022/08/19 09:35:37;;;;;;;6.20;4.60;;;;;;;28.94;46.70;100667.75;107488;1248;63205;-72
2022/08/19 09:38:21;;;;;;;6.90;4.60;;;;;;;29.04;45.65;100662.18;107564;1247;60512;-74
2022/08/19 09:40:50;;;;;;;6.90;4.60;;;;;;;29.14;45.58;100663.40;107409;1249;60501;-71
2022/08/19 09:43:19;;;;;;;7.80;4.20;;;;;;;29.02;45.48;100666.13;107613;1247;72944;-75
2022/08/19 09:46:05;;;;;;;11.70;4.80;;;;;;;29.01;45.58;100667.44;107553;1247;61299;-73
2022/08/19 09:48:34;;;;;;;9.10;4.60;;;;;;;29.06;45.36;100666.91;107552;1248;61679;-72
2022/08/19 09:51:16;;;;;;;11.00;3.80;;;;;;;29.12;45.04;100662.70;107427;1249;63782;-73
2022/08/19 09:53:51;;;;;;;9.30;4.30;;;;;;;29.14;44.60;100668.87;107550;1247;61508;-74
2022/08/19 09:56:22;;;;;;;8.40;4.50;;;;;;;29.24;44.00;100672.45;107452;1250;59477;-71
2022/08/19 09:58:51;;;;;;;10.50;4.50;;;;;;;29.29;43.76;100679.11;107534;1247;73687;-74
2022/08/19 10:01:25;;;;;;;9.10;4.60;;;;;;;29.25;44.40;100669.83;107613;1247;62136;-72
2022/08/19 10:03:58;;;;;;;6.60;4.60;;;;;;;29.38;44.37;100667.77;107544;1247;59992;-72
2022/08/19 10:06:32;;;;;;;8.60;4.30;;;;;;;29.44;43.78;100670.23;107539;1250;63309;-73
2022/08/19 10:09:17;;;;;;;9.80;4.80;;;;;;;29.46;43.12;100672.33;107434;1247;58247;-71
2022/08/19 10:12:22;;;;;;;9.20;4.40;;;;;;;29.44;43.57;100661.70;107251;1249;61814;-72
2022/08/19 10:14:54;;;;;;;10.40;4.90;;;;;;;29.49;44.24;100670.95;107280;1247;74207;-74
2022/08/19 10:17:22;;;;;;;9.40;4.40;;;;;;;29.62;43.83;100665.71;107603;1247;71942;-72
2022/08/19 10:19:59;;;;;;;8.70;4.10;;;;;;;29.71;43.07;100669.48;107391;1247;71118;-72
2022/08/19 10:22:28;;;;;;;5.20;3.70;;;;;;;29.65;42.67;100669.09;107507;1247;63626;-74
2022/08/19 10:24:58;;;;;;;8.50;4.70;;;;;;;29.78;42.05;100665.11;107621;1248;60294;-72
2022/08/19 10:27:27;;;;;;;9.50;4.60;;;;;;;29.81;42.67;100665.70;107567;1247;59057;-74
2022/08/19 10:29:59;;;;;;;;;;;;;;;30.03;42.42;100670.30;107543;1247;63830;-76
2022/08/19 10:32:29;;;;;;;12.50;4.70;;;;;;;30.14;42.20;100662.66;107429;1247;73263;-73
2022/08/19 10:35:07;;;;;;;12.30;4.80;;;;;;;30.33;42.59;100656.36;107677;1246;70528;-71
2022/08/19 10:37:36;;;;;;;5.60;4.20;;;;;;;30.54;41.99;100652.74;107689;1247;62768;-73
2022/08/19 10:40:27;;;;;;;10.50;4.20;;;;;;;30.68;41.43;100648.70;107789;1247;57973;-74
2022/08/19 10:42:56;;;;;;;9.70;3.80;;;;;;;31.15;41.35;100642.27;108134;1247;61645;-75
2022/08/19 10:45:25;;;;;;;7.30;4.00;;;;;;;31.21;39.01;100645.23;107734;1247;74932;-71
2022/08/19 10:47:56;;;;;;;7.50;3.80;;;;;;;31.11;39.35;100644.42;107473;1247;71886;-75
2022/08/19 10:53:56;;;;;;;5.10;3.30;;;;;;;31.15;38.59;100651.89;106913;1254;74351;-72
2022/08/19 10:59:14;;;;;;;6.50;3.50;;;;;;;31.57;38.05;100641.27;107219;1247;61658;-70
2022/08/19 11:01:45;;;;;;;9.80;3.50;;;;;;;31.75;37.52;100635.41;107494;1247;74432;-72
2022/08/19 11:04:17;;;;;;;5.50;3.50;;;;;;;31.83;37.61;100642.70;107548;1247;72722;-70
2022/08/19 11:06:49;;;;;;;6.40;3.40;;;;;;;31.86;37.50;100642.19;107240;1247;60774;-73
2022/08/19 11:09:24;;;;;;;8.00;3.50;;;;;;;31.98;37.27;100629.03;107331;1248;73006;-72
2022/08/19 11:12:01;;;;;;;9.30;3.50;;;;;;;32.13;36.56;100626.27;107438;1249;59600;-74
2022/08/19 11:14:33;;;;;;;6.30;3.30;;;;;;;32.26;36.45;100624.98;107399;1246;59521;-73
2022/08/19 11:17:05;;;;;;;7.00;3.60;;;;;;;32.34;36.73;100629.66;107691;1247;62985;-74
2022/08/19 11:19:35;;;;;;;7.80;3.70;;;;;;;32.24;36.13;100632.37;107553;1247;72265;-74
2022/08/19 11:22:09;;;;;;;8.80;3.60;;;;;;;32.20;36.73;100629.52;107454;1247;70594;-74
2022/08/19 11:24:43;;;;;;;8.50;3.20;;;;;;;32.36;36.48;100624.80;107649;1247;64017;-73
2022/08/19 11:27:12;;;;;;;7.50;3.50;;;;;;;32.49;35.76;100624.39;107415;1247;60572;-74
2022/08/19 11:29:40;;;;;;;9.30;3.70;;;;;;;32.54;35.69;100618.38;106343;1246;2291240;-71
2022/08/19 11:32:10;;;;;;;8.20;3.50;;;;;;;32.86;35.50;100615.75;107954;1247;63705;-74
2022/08/19 11:34:39;;;;;;;8.80;3.40;;;;;;;32.78;35.44;100615.38;107898;1245;60888;-71
2022/08/19 11:37:08;;;;;;;8.70;3.30;;;;;;;33.10;35.39;100610.23;107786;1247;69113;-73
2022/08/19 11:39:38;;;;;;;8.10;3.60;;;;;;;33.03;35.84;100604.61;107952;1247;63733;-72
2022/08/19 11:44:55;;;;;;;8.70;3.40;;;;;;;33.45;34.58;100595.55;107732;1247;60769;-71
2022/08/19 11:47:24;;;;;;;8.90;3.60;;;;;;;33.77;33.15;100602.02;107774;1247;73197;-73
2022/08/19 11:49:53;;;;;;;5.00;3.00;;;;;;;33.73;33.37;100596.52;107635;1247;72784;-71
2022/08/19 11:52:21;;;;;;;7.90;2.90;;;;;;;33.71;33.09;100595.39;107678;1247;69749;-74
2022/08/19 11:54:50;;;;;;;8.60;3.00;;;;;;;33.82;32.40;100600.89;107539;1248;62427;-75
2022/08/19 11:57:19;;;;;;;6.90;2.90;;;;;;;33.34;33.35;100604.87;107689;1247;60245;-73